sensor_id;sensor_type;location;lat;lon;timestamp;P1;durP1;ratioP1;P2;durP2;ratioP2
56667;SDS011;42542;48.360;10.958;2023-08-21T00:02:58;12.95;;;7.68;;
56667;SDS011;42542;48.360;10.958;2023-08-21T00:06:00;11.57;;;6.78;;
56667;SDS011;42542;48.360;10.958;2023-08-21T00:09:02;13.40;;;7.65;;
56667;SDS011;42542;48.360;10.958;2023-08-21T00:12:04;12.97;;;7.20;;
56667;SDS011;42542;48.360;10.958;2023-08-21T00:15:07;14.10;;;7.20;;
56667;SDS011;42542;48.360;10.958;2023-08-21T00:18:11;13.13;;;7.55;;
56667;SDS011;42542;48.360;10.958;2023-08-21T00:21:13;12.98;;;7.35;;
56667;SDS011;42542;48.360;10.958;2023-08-21T00:24:14;14.75;;;7.40;;
56667;SDS011;42542;48.360;10.958;2023-08-21T00:27:17;12.30;;;7.37;;
56667;SDS011;42542;48.360;10.958;2023-08-21T00:30:19;14.25;;;7.55;;
56667;SDS011;42542;48.360;10.958;2023-08-21T00:33:21;12.63;;;7.40;;
56667;SDS011;42542;48.360;10.958;2023-08-21T00:36:23;13.52;;;7.35;;
56667;SDS011;42542;48.360;10.958;2023-08-21T00:39:26;13.63;;;7.75;;
56667;SDS011;42542;48.360;10.958;2023-08-21T00:42:28;13.20;;;7.43;;
56667;SDS011;42542;48.360;10.958;2023-08-21T00:45:32;13.50;;;7.75;;
56667;SDS011;42542;48.360;10.958;2023-08-21T00:48:34;12.55;;;7.70;;
56667;SDS011;42542;48.360;10.958;2023-08-21T00:51:36;13.00;;;7.90;;
56667;SDS011;42542;48.360;10.958;2023-08-21T00:54:38;13.10;;;7.80;;
56667;SDS011;42542;48.360;10.958;2023-08-21T00:57:41;13.70;;;7.50;;
56667;SDS011;42542;48.360;10.958;2023-08-21T01:00:44;13.07;;;7.43;;
56667;SDS011;42542;48.360;10.958;2023-08-21T01:03:49;14.02;;;7.80;;
56667;SDS011;42542;48.360;10.958;2023-08-21T01:06:51;14.73;;;7.75;;
56667;SDS011;42542;48.360;10.958;2023-08-21T01:09:58;13.95;;;7.78;;
56667;SDS011;42542;48.360;10.958;2023-08-21T01:16:20;12.80;;;7.95;;
56667;SDS011;42542;48.360;10.958;2023-08-21T01:19:31;15.70;;;8.25;;
56667;SDS011;42542;48.360;10.958;2023-08-21T01:22:39;13.23;;;7.85;;
56667;SDS011;42542;48.360;10.958;2023-08-21T01:25:46;12.80;;;7.70;;
56667;SDS011;42542;48.360;10.958;2023-08-21T01:28:49;13.37;;;7.70;;
56667;SDS011;42542;48.360;10.958;2023-08-21T01:31:58;12.88;;;7.43;;
56667;SDS011;42542;48.360;10.958;2023-08-21T01:35:02;14.55;;;7.78;;
56667;SDS011;42542;48.360;10.958;2023-08-21T01:38:07;12.60;;;7.40;;
56667;SDS011;42542;48.360;10.958;2023-08-21T01:41:10;12.93;;;7.80;;
56667;SDS011;42542;48.360;10.958;2023-08-21T01:44:12;13.93;;;7.50;;
56667;SDS011;42542;48.360;10.958;2023-08-21T01:47:15;13.50;;;7.65;;
56667;SDS011;42542;48.360;10.958;2023-08-21T01:50:17;13.68;;;7.70;;
56667;SDS011;42542;48.360;10.958;2023-08-21T01:53:20;15.25;;;7.53;;
56667;SDS011;42542;48.360;10.958;2023-08-21T01:56:21;13.23;;;7.90;;
56667;SDS011;42542;48.360;10.958;2023-08-21T01:59:25;12.93;;;7.53;;
56667;SDS011;42542;48.360;10.958;2023-08-21T02:02:27;16.75;;;7.75;;
56667;SDS011;42542;48.360;10.958;2023-08-21T02:05:30;14.00;;;7.95;;
56667;SDS011;42542;48.360;10.958;2023-08-21T02:08:34;16.10;;;9.05;;
56667;SDS011;42542;48.360;10.958;2023-08-21T02:11:36;16.17;;;8.50;;
56667;SDS011;42542;48.360;10.958;2023-08-21T02:14:38;13.80;;;8.07;;
56667;SDS011;42542;48.360;10.958;2023-08-21T02:17:41;15.52;;;8.45;;
56667;SDS011;42542;48.360;10.958;2023-08-21T02:20:49;14.73;;;7.85;;
56667;SDS011;42542;48.360;10.958;2023-08-21T02:23:52;14.32;;;8.48;;
56667;SDS011;42542;48.360;10.958;2023-08-21T02:26:54;14.52;;;8.45;;
56667;SDS011;42542;48.360;10.958;2023-08-21T02:29:57;13.17;;;7.90;;
56667;SDS011;42542;48.360;10.958;2023-08-21T02:32:59;13.60;;;7.57;;
56667;SDS011;42542;48.360;10.958;2023-08-21T02:36:01;14.98;;;7.97;;
56667;SDS011;42542;48.360;10.958;2023-08-21T02:39:05;14.20;;;7.80;;
56667;SDS011;42542;48.360;10.958;2023-08-21T02:42:07;14.52;;;8.02;;
56667;SDS011;42542;48.360;10.958;2023-08-21T02:45:09;14.33;;;8.10;;
56667;SDS011;42542;48.360;10.958;2023-08-21T02:48:12;14.25;;;8.02;;
56667;SDS011;42542;48.360;10.958;2023-08-21T02:51:13;14.63;;;8.32;;
56667;SDS011;42542;48.360;10.958;2023-08-21T02:54:17;15.65;;;8.63;;
56667;SDS011;42542;48.360;10.958;2023-08-21T02:57:18;15.30;;;8.95;;
56667;SDS011;42542;48.360;10.958;2023-08-21T03:00:22;16.43;;;9.17;;
56667;SDS011;42542;48.360;10.958;2023-08-21T03:03:24;14.55;;;8.63;;
56667;SDS011;42542;48.360;10.958;2023-08-21T03:06:26;15.52;;;8.80;;
56667;SDS011;42542;48.360;10.958;2023-08-21T03:09:28;16.48;;;8.70;;
56667;SDS011;42542;48.360;10.958;2023-08-21T03:12:31;14.10;;;8.27;;
56667;SDS011;42542;48.360;10.958;2023-08-21T03:15:34;14.83;;;8.70;;
56667;SDS011;42542;48.360;10.958;2023-08-21T03:18:53;14.15;;;8.60;;
56667;SDS011;42542;48.360;10.958;2023-08-21T03:21:58;16.08;;;8.82;;
56667;SDS011;42542;48.360;10.958;2023-08-21T03:25:02;17.30;;;8.80;;
56667;SDS011;42542;48.360;10.958;2023-08-21T03:28:04;15.93;;;8.95;;
56667;SDS011;42542;48.360;10.958;2023-08-21T03:31:07;14.33;;;8.27;;
56667;SDS011;42542;48.360;10.958;2023-08-21T03:34:09;14.85;;;8.40;;
56667;SDS011;42542;48.360;10.958;2023-08-21T03:37:12;15.65;;;8.77;;
56667;SDS011;42542;48.360;10.958;2023-08-21T03:40:14;19.05;;;9.00;;
56667;SDS011;42542;48.360;10.958;2023-08-21T03:43:18;15.80;;;9.05;;
56667;SDS011;42542;48.360;10.958;2023-08-21T03:46:21;14.57;;;8.60;;
56667;SDS011;42542;48.360;10.958;2023-08-21T03:49:24;15.55;;;8.90;;
56667;SDS011;42542;48.360;10.958;2023-08-21T03:52:26;15.15;;;8.57;;
56667;SDS011;42542;48.360;10.958;2023-08-21T03:55:28;15.05;;;8.60;;
56667;SDS011;42542;48.360;10.958;2023-08-21T03:58:31;17.90;;;9.05;;
56667;SDS011;42542;48.360;10.958;2023-08-21T04:01:33;16.50;;;9.00;;
56667;SDS011;42542;48.360;10.958;2023-08-21T04:04:35;16.52;;;8.93;;
56667;SDS011;42542;48.360;10.958;2023-08-21T04:07:38;15.48;;;8.85;;
56667;SDS011;42542;48.360;10.958;2023-08-21T04:10:41;15.80;;;9.23;;
56667;SDS011;42542;48.360;10.958;2023-08-21T04:13:44;16.95;;;8.98;;
56667;SDS011;42542;48.360;10.958;2023-08-21T04:16:46;14.97;;;9.10;;
56667;SDS011;42542;48.360;10.958;2023-08-21T04:19:48;15.88;;;8.90;;
56667;SDS011;42542;48.360;10.958;2023-08-21T04:22:51;18.65;;;9.52;;
56667;SDS011;42542;48.360;10.958;2023-08-21T04:26:01;17.75;;;9.50;;
56667;SDS011;42542;48.360;10.958;2023-08-21T04:29:04;17.40;;;8.93;;
56667;SDS011;42542;48.360;10.958;2023-08-21T04:32:07;16.13;;;8.93;;
56667;SDS011;42542;48.360;10.958;2023-08-21T04:35:09;16.25;;;8.98;;
56667;SDS011;42542;48.360;10.958;2023-08-21T04:38:12;15.05;;;8.60;;
56667;SDS011;42542;48.360;10.958;2023-08-21T04:41:14;15.20;;;8.68;;
56667;SDS011;42542;48.360;10.958;2023-08-21T04:44:19;16.70;;;8.88;;
56667;SDS011;42542;48.360;10.958;2023-08-21T04:47:22;15.57;;;8.63;;
56667;SDS011;42542;48.360;10.958;2023-08-21T04:50:28;15.70;;;8.90;;
56667;SDS011;42542;48.360;10.958;2023-08-21T04:53:30;15.77;;;9.40;;
56667;SDS011;42542;48.360;10.958;2023-08-21T04:56:33;17.45;;;9.18;;
56667;SDS011;42542;48.360;10.958;2023-08-21T04:59:36;17.63;;;9.48;;
56667;SDS011;42542;48.360;10.958;2023-08-21T05:02:38;14.83;;;8.53;;
56667;SDS011;42542;48.360;10.958;2023-08-21T05:05:42;14.07;;;8.38;;
56667;SDS011;42542;48.360;10.958;2023-08-21T05:08:43;17.75;;;9.35;;
56667;SDS011;42542;48.360;10.958;2023-08-21T05:11:46;16.85;;;8.93;;
56667;SDS011;42542;48.360;10.958;2023-08-21T05:14:49;15.75;;;8.80;;
56667;SDS011;42542;48.360;10.958;2023-08-21T05:17:52;16.93;;;8.77;;
56667;SDS011;42542;48.360;10.958;2023-08-21T05:20:56;15.48;;;8.57;;
56667;SDS011;42542;48.360;10.958;2023-08-21T05:23:58;18.67;;;9.15;;
56667;SDS011;42542;48.360;10.958;2023-08-21T05:27:01;18.38;;;9.25;;
56667;SDS011;42542;48.360;10.958;2023-08-21T05:30:06;18.35;;;8.80;;
56667;SDS011;42542;48.360;10.958;2023-08-21T05:33:08;16.17;;;9.20;;
56667;SDS011;42542;48.360;10.958;2023-08-21T05:36:11;16.20;;;8.57;;
56667;SDS011;42542;48.360;10.958;2023-08-21T05:39:13;16.17;;;9.57;;
56667;SDS011;42542;48.360;10.958;2023-08-21T05:42:16;16.00;;;8.70;;
56667;SDS011;42542;48.360;10.958;2023-08-21T05:45:17;16.30;;;8.90;;
56667;SDS011;42542;48.360;10.958;2023-08-21T05:48:19;16.93;;;8.70;;
56667;SDS011;42542;48.360;10.958;2023-08-21T05:51:21;19.85;;;9.00;;
56667;SDS011;42542;48.360;10.958;2023-08-21T05:54:25;17.23;;;8.95;;
56667;SDS011;42542;48.360;10.958;2023-08-21T05:57:27;14.63;;;8.63;;
56667;SDS011;42542;48.360;10.958;2023-08-21T06:00:29;17.23;;;8.80;;
56667;SDS011;42542;48.360;10.958;2023-08-21T06:03:34;18.07;;;8.80;;
56667;SDS011;42542;48.360;10.958;2023-08-21T06:07:00;16.02;;;9.05;;
56667;SDS011;42542;48.360;10.958;2023-08-21T06:10:02;17.00;;;9.18;;
56667;SDS011;42542;48.360;10.958;2023-08-21T06:13:06;15.73;;;8.50;;
56667;SDS011;42542;48.360;10.958;2023-08-21T06:16:08;15.73;;;9.00;;
56667;SDS011;42542;48.360;10.958;2023-08-21T06:19:12;17.70;;;9.17;;
56667;SDS011;42542;48.360;10.958;2023-08-21T06:22:13;15.40;;;9.25;;
56667;SDS011;42542;48.360;10.958;2023-08-21T06:25:17;16.05;;;8.55;;
56667;SDS011;42542;48.360;10.958;2023-08-21T06:28:21;13.93;;;8.50;;
56667;SDS011;42542;48.360;10.958;2023-08-21T06:31:23;17.08;;;8.95;;
56667;SDS011;42542;48.360;10.958;2023-08-21T06:34:25;14.77;;;8.73;;
56667;SDS011;42542;48.360;10.958;2023-08-21T06:37:31;15.32;;;8.55;;
56667;SDS011;42542;48.360;10.958;2023-08-21T06:40:33;15.50;;;9.13;;
56667;SDS011;42542;48.360;10.958;2023-08-21T06:43:35;16.58;;;9.20;;
56667;SDS011;42542;48.360;10.958;2023-08-21T06:46:38;13.90;;;8.88;;
56667;SDS011;42542;48.360;10.958;2023-08-21T06:49:40;15.80;;;9.03;;
56667;SDS011;42542;48.360;10.958;2023-08-21T06:52:41;15.15;;;8.68;;
56667;SDS011;42542;48.360;10.958;2023-08-21T06:55:44;15.32;;;9.20;;
56667;SDS011;42542;48.360;10.958;2023-08-21T06:58:48;15.82;;;9.07;;
56667;SDS011;42542;48.360;10.958;2023-08-21T07:01:49;15.50;;;8.93;;
56667;SDS011;42542;48.360;10.958;2023-08-21T07:04:53;15.87;;;9.10;;
56667;SDS011;42542;48.360;10.958;2023-08-21T07:07:55;16.38;;;9.18;;
56667;SDS011;42542;48.360;10.958;2023-08-21T07:10:58;15.50;;;9.30;;
56667;SDS011;42542;48.360;10.958;2023-08-21T07:14:06;15.13;;;9.30;;
56667;SDS011;42542;48.360;10.958;2023-08-21T07:17:09;14.90;;;9.23;;
56667;SDS011;42542;48.360;10.958;2023-08-21T07:20:11;16.03;;;9.03;;
56667;SDS011;42542;48.360;10.958;2023-08-21T07:23:14;15.35;;;8.75;;
56667;SDS011;42542;48.360;10.958;2023-08-21T07:26:15;15.40;;;9.20;;
56667;SDS011;42542;48.360;10.958;2023-08-21T07:29:18;15.50;;;9.15;;
56667;SDS011;42542;48.360;10.958;2023-08-21T07:32:20;18.20;;;8.82;;
56667;SDS011;42542;48.360;10.958;2023-08-21T07:35:21;15.50;;;8.67;;
56667;SDS011;42542;48.360;10.958;2023-08-21T07:38:23;16.90;;;9.35;;
56667;SDS011;42542;48.360;10.958;2023-08-21T07:41:25;13.95;;;9.02;;
56667;SDS011;42542;48.360;10.958;2023-08-21T07:44:28;14.85;;;9.05;;
56667;SDS011;42542;48.360;10.958;2023-08-21T07:47:30;20.13;;;9.18;;
56667;SDS011;42542;48.360;10.958;2023-08-21T07:50:34;14.27;;;8.83;;
56667;SDS011;42542;48.360;10.958;2023-08-21T07:53:37;12.85;;;8.27;;
56667;SDS011;42542;48.360;10.958;2023-08-21T07:56:39;15.35;;;8.43;;
56667;SDS011;42542;48.360;10.958;2023-08-21T07:59:42;14.15;;;8.55;;
56667;SDS011;42542;48.360;10.958;2023-08-21T08:02:44;16.67;;;8.30;;
56667;SDS011;42542;48.360;10.958;2023-08-21T08:05:46;16.83;;;8.47;;
56667;SDS011;42542;48.360;10.958;2023-08-21T08:08:59;14.20;;;8.57;;
56667;SDS011;42542;48.360;10.958;2023-08-21T08:12:02;15.63;;;8.85;;
56667;SDS011;42542;48.360;10.958;2023-08-21T08:15:04;16.77;;;8.68;;
56667;SDS011;42542;48.360;10.958;2023-08-21T08:18:11;16.88;;;9.27;;
56667;SDS011;42542;48.360;10.958;2023-08-21T08:21:13;13.33;;;8.67;;
56667;SDS011;42542;48.360;10.958;2023-08-21T08:24:17;14.68;;;8.95;;
56667;SDS011;42542;48.360;10.958;2023-08-21T08:27:20;16.23;;;9.52;;
56667;SDS011;42542;48.360;10.958;2023-08-21T08:30:25;14.25;;;8.93;;
56667;SDS011;42542;48.360;10.958;2023-08-21T08:33:26;15.18;;;8.93;;
56667;SDS011;42542;48.360;10.958;2023-08-21T08:36:29;14.97;;;8.63;;
56667;SDS011;42542;48.360;10.958;2023-08-21T08:39:31;16.10;;;9.52;;
56667;SDS011;42542;48.360;10.958;2023-08-21T08:42:34;16.20;;;9.60;;
56667;SDS011;42542;48.360;10.958;2023-08-21T08:45:37;15.38;;;9.32;;
56667;SDS011;42542;48.360;10.958;2023-08-21T08:48:39;16.83;;;10.57;;
56667;SDS011;42542;48.360;10.958;2023-08-21T08:51:42;15.60;;;9.73;;
56667;SDS011;42542;48.360;10.958;2023-08-21T08:54:45;17.65;;;10.18;;
56667;SDS011;42542;48.360;10.958;2023-08-21T08:57:47;14.85;;;9.82;;
56667;SDS011;42542;48.360;10.958;2023-08-21T09:00:50;17.30;;;9.57;;
56667;SDS011;42542;48.360;10.958;2023-08-21T09:03:52;14.88;;;9.82;;
56667;SDS011;42542;48.360;10.958;2023-08-21T09:07:16;16.27;;;10.00;;
56667;SDS011;42542;48.360;10.958;2023-08-21T09:10:18;17.25;;;9.90;;
56667;SDS011;42542;48.360;10.958;2023-08-21T09:13:21;14.45;;;9.60;;
56667;SDS011;42542;48.360;10.958;2023-08-21T09:16:23;15.75;;;9.23;;
56667;SDS011;42542;48.360;10.958;2023-08-21T09:19:27;15.77;;;9.40;;
56667;SDS011;42542;48.360;10.958;2023-08-21T09:22:29;16.93;;;9.20;;
56667;SDS011;42542;48.360;10.958;2023-08-21T09:25:35;14.43;;;9.02;;
56667;SDS011;42542;48.360;10.958;2023-08-21T09:28:40;11.88;;;8.32;;
56667;SDS011;42542;48.360;10.958;2023-08-21T09:31:41;14.07;;;8.30;;
56667;SDS011;42542;48.360;10.958;2023-08-21T09:34:46;13.77;;;8.55;;
56667;SDS011;42542;48.360;10.958;2023-08-21T09:37:47;14.27;;;8.77;;
56667;SDS011;42542;48.360;10.958;2023-08-21T09:40:51;12.98;;;8.00;;
56667;SDS011;42542;48.360;10.958;2023-08-21T09:43:58;12.13;;;8.35;;
56667;SDS011;42542;48.360;10.958;2023-08-21T09:47:01;13.23;;;8.23;;
56667;SDS011;42542;48.360;10.958;2023-08-21T09:50:05;12.57;;;8.48;;
56667;SDS011;42542;48.360;10.958;2023-08-21T09:53:07;12.73;;;8.57;;
56667;SDS011;42542;48.360;10.958;2023-08-21T09:56:10;14.32;;;8.60;;
56667;SDS011;42542;48.360;10.958;2023-08-21T09:59:12;15.05;;;9.35;;
56667;SDS011;42542;48.360;10.958;2023-08-21T10:02:16;16.38;;;8.65;;
56667;SDS011;42542;48.360;10.958;2023-08-21T10:05:18;13.82;;;8.93;;
56667;SDS011;42542;48.360;10.958;2023-08-21T10:08:23;14.00;;;8.60;;
56667;SDS011;42542;48.360;10.958;2023-08-21T10:11:28;13.30;;;8.30;;
56667;SDS011;42542;48.360;10.958;2023-08-21T10:14:30;15.05;;;8.38;;
56667;SDS011;42542;48.360;10.958;2023-08-21T10:17:32;15.18;;;9.05;;
56667;SDS011;42542;48.360;10.958;2023-08-21T10:20:35;14.60;;;8.77;;
56667;SDS011;42542;48.360;10.958;2023-08-21T10:23:37;17.50;;;8.70;;
56667;SDS011;42542;48.360;10.958;2023-08-21T10:26:47;13.80;;;8.07;;
56667;SDS011;42542;48.360;10.958;2023-08-21T10:29:58;13.88;;;8.68;;
56667;SDS011;42542;48.360;10.958;2023-08-21T10:33:00;13.80;;;8.10;;
56667;SDS011;42542;48.360;10.958;2023-08-21T10:36:02;11.20;;;7.53;;
56667;SDS011;42542;48.360;10.958;2023-08-21T10:39:12;12.57;;;7.77;;
56667;SDS011;42542;48.360;10.958;2023-08-21T10:42:16;14.70;;;8.02;;
56667;SDS011;42542;48.360;10.958;2023-08-21T10:45:18;13.10;;;7.85;;
56667;SDS011;42542;48.360;10.958;2023-08-21T10:48:20;11.55;;;7.53;;
56667;SDS011;42542;48.360;10.958;2023-08-21T10:51:23;12.73;;;7.38;;
56667;SDS011;42542;48.360;10.958;2023-08-21T10:54:42;13.33;;;7.73;;
56667;SDS011;42542;48.360;10.958;2023-08-21T10:57:48;13.32;;;7.60;;
56667;SDS011;42542;48.360;10.958;2023-08-21T11:00:57;13.52;;;7.80;;
56667;SDS011;42542;48.360;10.958;2023-08-21T11:04:01;11.27;;;7.10;;
56667;SDS011;42542;48.360;10.958;2023-08-21T11:07:04;11.45;;;6.85;;
56667;SDS011;42542;48.360;10.958;2023-08-21T11:10:08;11.17;;;7.60;;
56667;SDS011;42542;48.360;10.958;2023-08-21T11:13:13;11.43;;;7.07;;
56667;SDS011;42542;48.360;10.958;2023-08-21T11:16:15;10.77;;;6.82;;
56667;SDS011;42542;48.360;10.958;2023-08-21T11:19:18;11.38;;;6.40;;
56667;SDS011;42542;48.360;10.958;2023-08-21T11:22:20;11.43;;;7.07;;
56667;SDS011;42542;48.360;10.958;2023-08-21T11:25:22;10.50;;;6.83;;
56667;SDS011;42542;48.360;10.958;2023-08-21T11:28:23;10.98;;;7.32;;
56667;SDS011;42542;48.360;10.958;2023-08-21T11:31:26;13.27;;;7.50;;
56667;SDS011;42542;48.360;10.958;2023-08-21T11:34:28;11.43;;;7.40;;
56667;SDS011;42542;48.360;10.958;2023-08-21T11:37:31;12.18;;;7.32;;
56667;SDS011;42542;48.360;10.958;2023-08-21T11:40:36;11.07;;;7.40;;
56667;SDS011;42542;48.360;10.958;2023-08-21T11:43:41;13.55;;;7.57;;
56667;SDS011;42542;48.360;10.958;2023-08-21T11:46:43;11.52;;;7.10;;
56667;SDS011;42542;48.360;10.958;2023-08-21T11:49:47;10.98;;;6.80;;
56667;SDS011;42542;48.360;10.958;2023-08-21T11:52:52;12.10;;;6.78;;
56667;SDS011;42542;48.360;10.958;2023-08-21T11:55:57;11.63;;;7.00;;
56667;SDS011;42542;48.360;10.958;2023-08-21T11:58:58;12.07;;;6.85;;
56667;SDS011;42542;48.360;10.958;2023-08-21T12:02:01;11.27;;;6.70;;
56667;SDS011;42542;48.360;10.958;2023-08-21T12:05:13;12.77;;;7.00;;
56667;SDS011;42542;48.360;10.958;2023-08-21T12:08:16;11.80;;;7.05;;
56667;SDS011;42542;48.360;10.958;2023-08-21T12:11:18;13.90;;;6.70;;
56667;SDS011;42542;48.360;10.958;2023-08-21T12:14:20;11.27;;;6.60;;
56667;SDS011;42542;48.360;10.958;2023-08-21T12:17:22;10.13;;;6.68;;
56667;SDS011;42542;48.360;10.958;2023-08-21T12:20:25;13.00;;;7.18;;
56667;SDS011;42542;48.360;10.958;2023-08-21T12:23:27;10.50;;;6.68;;
56667;SDS011;42542;48.360;10.958;2023-08-21T12:26:30;10.93;;;7.07;;
56667;SDS011;42542;48.360;10.958;2023-08-21T12:29:50;11.52;;;7.47;;
56667;SDS011;42542;48.360;10.958;2023-08-21T12:32:52;11.80;;;7.13;;
56667;SDS011;42542;48.360;10.958;2023-08-21T12:36:02;12.63;;;7.88;;
56667;SDS011;42542;48.360;10.958;2023-08-21T12:39:07;11.73;;;7.50;;
56667;SDS011;42542;48.360;10.958;2023-08-21T12:42:10;10.90;;;7.17;;
56667;SDS011;42542;48.360;10.958;2023-08-21T12:45:11;12.73;;;7.53;;
56667;SDS011;42542;48.360;10.958;2023-08-21T12:48:13;13.85;;;7.60;;
56667;SDS011;42542;48.360;10.958;2023-08-21T12:51:16;12.05;;;7.38;;
56667;SDS011;42542;48.360;10.958;2023-08-21T12:54:18;10.65;;;7.18;;
56667;SDS011;42542;48.360;10.958;2023-08-21T12:57:20;11.07;;;6.93;;
56667;SDS011;42542;48.360;10.958;2023-08-21T13:00:23;10.13;;;6.90;;
56667;SDS011;42542;48.360;10.958;2023-08-21T13:03:25;13.43;;;7.30;;
56667;SDS011;42542;48.360;10.958;2023-08-21T13:06:30;13.32;;;7.32;;
56667;SDS011;42542;48.360;10.958;2023-08-21T13:09:33;13.80;;;7.63;;
56667;SDS011;42542;48.360;10.958;2023-08-21T13:12:35;11.20;;;7.67;;
56667;SDS011;42542;48.360;10.958;2023-08-21T13:15:39;11.25;;;7.45;;
56667;SDS011;42542;48.360;10.958;2023-08-21T13:18:41;14.70;;;7.25;;
56667;SDS011;42542;48.360;10.958;2023-08-21T13:21:43;10.13;;;7.15;;
56667;SDS011;42542;48.360;10.958;2023-08-21T13:24:46;11.73;;;7.63;;
56667;SDS011;42542;48.360;10.958;2023-08-21T13:27:48;14.40;;;7.93;;
56667;SDS011;42542;48.360;10.958;2023-08-21T13:30:50;14.20;;;7.78;;
56667;SDS011;42542;48.360;10.958;2023-08-21T13:33:54;13.60;;;7.40;;
56667;SDS011;42542;48.360;10.958;2023-08-21T13:36:56;12.90;;;7.28;;
56667;SDS011;42542;48.360;10.958;2023-08-21T13:39:59;13.63;;;7.60;;
56667;SDS011;42542;48.360;10.958;2023-08-21T13:43:01;11.67;;;7.33;;
56667;SDS011;42542;48.360;10.958;2023-08-21T13:46:04;11.20;;;7.40;;
56667;SDS011;42542;48.360;10.958;2023-08-21T13:49:06;12.02;;;7.53;;
56667;SDS011;42542;48.360;10.958;2023-08-21T13:52:09;11.77;;;7.15;;
56667;SDS011;42542;48.360;10.958;2023-08-21T13:55:10;12.30;;;7.60;;
56667;SDS011;42542;48.360;10.958;2023-08-21T13:58:12;13.40;;;7.50;;
56667;SDS011;42542;48.360;10.958;2023-08-21T14:01:14;14.30;;;6.95;;
56667;SDS011;42542;48.360;10.958;2023-08-21T14:04:15;13.10;;;6.82;;
56667;SDS011;42542;48.360;10.958;2023-08-21T14:07:17;10.13;;;6.72;;
56667;SDS011;42542;48.360;10.958;2023-08-21T14:10:20;14.23;;;6.95;;
56667;SDS011;42542;48.360;10.958;2023-08-21T14:13:21;10.67;;;6.70;;
56667;SDS011;42542;48.360;10.958;2023-08-21T14:16:24;13.90;;;6.78;;
56667;SDS011;42542;48.360;10.958;2023-08-21T14:19:26;11.68;;;7.20;;
56667;SDS011;42542;48.360;10.958;2023-08-21T14:22:28;13.02;;;7.10;;
56667;SDS011;42542;48.360;10.958;2023-08-21T14:25:32;11.63;;;6.95;;
56667;SDS011;42542;48.360;10.958;2023-08-21T14:28:34;13.93;;;7.60;;
56667;SDS011;42542;48.360;10.958;2023-08-21T14:31:36;12.75;;;7.28;;
56667;SDS011;42542;48.360;10.958;2023-08-21T14:34:38;11.88;;;7.50;;
56667;SDS011;42542;48.360;10.958;2023-08-21T14:37:40;11.23;;;7.38;;
56667;SDS011;42542;48.360;10.958;2023-08-21T14:40:42;13.95;;;7.43;;
56667;SDS011;42542;48.360;10.958;2023-08-21T14:43:44;14.27;;;7.23;;
56667;SDS011;42542;48.360;10.958;2023-08-21T14:46:47;12.73;;;7.00;;
56667;SDS011;42542;48.360;10.958;2023-08-21T14:49:49;12.32;;;7.40;;
56667;SDS011;42542;48.360;10.958;2023-08-21T14:52:53;11.57;;;7.63;;
56667;SDS011;42542;48.360;10.958;2023-08-21T14:55:54;12.10;;;7.75;;
56667;SDS011;42542;48.360;10.958;2023-08-21T14:58:57;15.60;;;7.30;;
56667;SDS011;42542;48.360;10.958;2023-08-21T15:01:59;11.90;;;7.07;;
56667;SDS011;42542;48.360;10.958;2023-08-21T15:05:02;12.50;;;7.20;;
56667;SDS011;42542;48.360;10.958;2023-08-21T15:08:06;13.77;;;7.80;;
56667;SDS011;42542;48.360;10.958;2023-08-21T15:11:09;12.15;;;7.50;;
56667;SDS011;42542;48.360;10.958;2023-08-21T15:14:11;13.63;;;7.23;;
56667;SDS011;42542;48.360;10.958;2023-08-21T15:17:13;12.90;;;7.55;;
56667;SDS011;42542;48.360;10.958;2023-08-21T15:20:20;12.05;;;7.57;;
56667;SDS011;42542;48.360;10.958;2023-08-21T15:23:23;11.02;;;7.30;;
56667;SDS011;42542;48.360;10.958;2023-08-21T15:26:24;11.98;;;7.25;;
56667;SDS011;42542;48.360;10.958;2023-08-21T15:29:27;9.13;;;5.57;;
56667;SDS011;42542;48.360;10.958;2023-08-21T15:32:28;8.82;;;6.07;;
56667;SDS011;42542;48.360;10.958;2023-08-21T15:35:31;10.20;;;5.97;;
56667;SDS011;42542;48.360;10.958;2023-08-21T15:38:32;10.23;;;6.10;;
56667;SDS011;42542;48.360;10.958;2023-08-21T15:41:35;10.30;;;5.80;;
56667;SDS011;42542;48.360;10.958;2023-08-21T15:44:38;11.23;;;6.10;;
56667;SDS011;42542;48.360;10.958;2023-08-21T15:47:40;10.02;;;5.93;;
56667;SDS011;42542;48.360;10.958;2023-08-21T15:50:49;9.95;;;6.32;;
56667;SDS011;42542;48.360;10.958;2023-08-21T15:53:52;10.32;;;6.28;;
56667;SDS011;42542;48.360;10.958;2023-08-21T15:56:54;10.93;;;7.00;;
56667;SDS011;42542;48.360;10.958;2023-08-21T15:59:56;12.13;;;7.10;;
56667;SDS011;42542;48.360;10.958;2023-08-21T16:02:58;12.43;;;7.78;;
56667;SDS011;42542;48.360;10.958;2023-08-21T16:06:01;12.77;;;7.78;;
56667;SDS011;42542;48.360;10.958;2023-08-21T16:09:03;11.88;;;7.65;;
56667;SDS011;42542;48.360;10.958;2023-08-21T16:12:06;12.70;;;7.43;;
56667;SDS011;42542;48.360;10.958;2023-08-21T16:15:08;13.47;;;7.17;;
56667;SDS011;42542;48.360;10.958;2023-08-21T16:18:10;12.95;;;7.10;;
56667;SDS011;42542;48.360;10.958;2023-08-21T16:21:11;11.43;;;7.80;;
56667;SDS011;42542;48.360;10.958;2023-08-21T16:24:14;12.02;;;7.80;;
56667;SDS011;42542;48.360;10.958;2023-08-21T16:27:16;10.25;;;7.10;;
56667;SDS011;42542;48.360;10.958;2023-08-21T16:30:19;12.30;;;7.23;;
56667;SDS011;42542;48.360;10.958;2023-08-21T16:33:20;24.63;;;10.07;;
56667;SDS011;42542;48.360;10.958;2023-08-21T16:36:23;15.48;;;7.70;;
56667;SDS011;42542;48.360;10.958;2023-08-21T16:39:25;12.13;;;7.20;;
56667;SDS011;42542;48.360;10.958;2023-08-21T16:42:27;12.00;;;7.55;;
56667;SDS011;42542;48.360;10.958;2023-08-21T16:45:29;10.57;;;7.40;;
56667;SDS011;42542;48.360;10.958;2023-08-21T16:48:31;11.50;;;7.15;;
56667;SDS011;42542;48.360;10.958;2023-08-21T16:51:33;13.95;;;7.45;;
56667;SDS011;42542;48.360;10.958;2023-08-21T16:54:36;12.15;;;7.45;;
56667;SDS011;42542;48.360;10.958;2023-08-21T16:57:38;13.55;;;7.90;;
56667;SDS011;42542;48.360;10.958;2023-08-21T17:00:43;12.33;;;7.00;;
56667;SDS011;42542;48.360;10.958;2023-08-21T17:03:45;12.38;;;7.22;;
56667;SDS011;42542;48.360;10.958;2023-08-21T17:06:47;12.70;;;7.45;;
56667;SDS011;42542;48.360;10.958;2023-08-21T17:09:50;11.90;;;7.25;;
56667;SDS011;42542;48.360;10.958;2023-08-21T17:12:53;12.05;;;7.22;;
56667;SDS011;42542;48.360;10.958;2023-08-21T17:16:05;12.40;;;7.50;;
56667;SDS011;42542;48.360;10.958;2023-08-21T17:19:22;10.20;;;7.10;;
56667;SDS011;42542;48.360;10.958;2023-08-21T17:22:26;12.77;;;7.10;;
56667;SDS011;42542;48.360;10.958;2023-08-21T17:25:28;12.85;;;7.65;;
56667;SDS011;42542;48.360;10.958;2023-08-21T17:28:31;14.27;;;7.10;;
56667;SDS011;42542;48.360;10.958;2023-08-21T17:31:33;13.47;;;7.40;;
56667;SDS011;42542;48.360;10.958;2023-08-21T17:34:34;14.15;;;7.60;;
56667;SDS011;42542;48.360;10.958;2023-08-21T17:37:36;11.82;;;7.30;;
56667;SDS011;42542;48.360;10.958;2023-08-21T17:40:39;14.60;;;7.72;;
56667;SDS011;42542;48.360;10.958;2023-08-21T17:43:41;16.05;;;11.98;;
56667;SDS011;42542;48.360;10.958;2023-08-21T17:46:43;16.30;;;8.10;;
56667;SDS011;42542;48.360;10.958;2023-08-21T17:49:45;14.43;;;7.60;;
56667;SDS011;42542;48.360;10.958;2023-08-21T17:52:48;12.38;;;7.60;;
56667;SDS011;42542;48.360;10.958;2023-08-21T17:55:51;12.82;;;7.40;;